Time;durP1;ratioP1;P1;durP2;ratioP2;P2;SDS_P1;SDS_P2;PMS_P1;PMS_P2;Temp;Humidity;BMP_temperature;BMP_pressure;BME280_temperature;BME280_humidity;BME280_pressure;Samples;Min_cycle;Max_cycle;Signal;HPM_P1;HPM_P2
2024/04/23 00:01:05;;;;;;;;;4.67;4.33;;;;;;;;5502578;25;44223;-49
2024/04/23 00:03:30;;;;;;;;;7.33;5.00;;;;;;;;5502136;25;43863;-47
2024/04/23 00:05:56;;;;;;;;;7.00;6.00;;;;;;;;5494824;25;43740;-48
2024/04/23 00:08:21;;;;;;;;;6.00;5.33;;;;;;;;5494481;25;43954;-47
2024/04/23 00:10:46;;;;;;;;;6.67;6.67;;;;;;;;5501974;25;44229;-50
2024/04/23 00:13:11;;;;;;;;;8.00;6.00;;;;;;;;5502383;25;43935;-49
2024/04/23 00:15:36;;;;;;;;;6.67;4.00;;;;;;;;5462469;25;43839;-48
2024/04/23 00:18:01;;;;;;;;;6.67;6.67;;;;;;;;5489840;25;43863;-49
2024/04/23 00:20:28;;;;;;;;;6.33;5.00;;;;;;;;5501636;25;44835;-47
2024/04/23 00:22:53;;;;;;;;;5.00;5.00;;;;;;;;5460140;25;44410;-46
2024/04/23 00:25:18;;;;;;;;;5.33;5.00;;;;;;;;5492222;25;43871;-47
2024/04/23 00:27:43;;;;;;;;;7.00;5.67;;;;;;;;5494861;25;44537;-50
2024/04/23 00:30:09;;;;;;;;;9.67;6.67;;;;;;;;5462893;25;44437;-47
2024/04/23 00:32:34;;;;;;;;;9.33;5.00;;;;;;;;5483779;25;44032;-48
2024/04/23 00:34:59;;;;;;;;;11.33;7.33;;;;;;;;5501508;25;43899;-47
2024/04/23 00:37:24;;;;;;;;;9.67;7.00;;;;;;;;5484952;25;43890;-47
2024/04/23 00:39:49;;;;;;;;;6.33;6.33;;;;;;;;5501761;25;44150;-48
2024/04/23 00:42:15;;;;;;;;;6.67;6.33;;;;;;;;5494013;25;43930;-47
2024/04/23 00:44:40;;;;;;;;;9.00;7.00;;;;;;;;5500823;25;44074;-47
2024/04/23 00:47:05;;;;;;;;;8.00;5.00;;;;;;;;5455121;25;43922;-47
2024/04/23 00:49:30;;;;;;;;;4.00;4.00;;;;;;;;5491444;25;44035;-47
2024/04/23 00:51:56;;;;;;;;;6.67;5.33;;;;;;;;5493608;25;45336;-47
2024/04/23 00:54:23;;;;;;;;;9.67;6.33;;;;;;;;5498885;25;44047;-47
2024/04/23 00:56:49;;;;;;;;;8.00;5.00;;;;;;;;5501242;25;43962;-49
2024/04/23 00:59:16;;;;;;;;;6.33;5.00;;;;;;;;5461969;25;44156;-47
2024/04/23 01:01:41;;;;;;;;;10.00;5.00;;;;;;;;5486674;25;43969;-48
2024/04/23 01:04:07;;;;;;;;;6.33;6.33;;;;;;;;5501933;25;44206;-48
2024/04/23 01:06:32;;;;;;;;;6.33;5.67;;;;;;;;5486764;25;44124;-46
2024/04/23 01:08:57;;;;;;;;;6.00;4.00;;;;;;;;5501706;25;44187;-49
2024/04/23 01:11:22;;;;;;;;;6.33;5.00;;;;;;;;5461980;25;43819;-55
2024/04/23 01:13:48;;;;;;;;;6.00;6.00;;;;;;;;5500729;25;43878;-50
2024/04/23 01:16:13;;;;;;;;;5.67;5.67;;;;;;;;5494881;25;44162;-47
2024/04/23 01:18:38;;;;;;;;;6.00;6.00;;;;;;;;5459906;25;43829;-46
2024/04/23 01:21:06;;;;;;;;;5.00;4.00;;;;;;;;5490872;25;43894;-46
2024/04/23 01:23:48;;;;;;;;;5.00;5.00;;;;;;;;5492219;25;43899;-47
2024/04/23 01:26:14;;;;;;;;;5.00;5.00;;;;;;;;5461017;25;44001;-46
2024/04/23 01:28:40;;;;;;;;;6.00;6.00;;;;;;;;5500774;25;43980;-46
2024/04/23 01:31:08;;;;;;;;;6.00;5.67;;;;;;;;5493676;25;44500;-46
2024/04/23 01:33:34;;;;;;;;;4.33;4.00;;;;;;;;5493455;25;43841;-47
2024/04/23 01:36:01;;;;;;;;;6.00;6.00;;;;;;;;5493328;25;43956;-52
2024/04/23 01:38:26;;;;;;;;;8.67;6.33;;;;;;;;5500603;25;44165;-48
2024/04/23 01:40:51;;;;;;;;;5.67;3.67;;;;;;;;5492512;25;43813;-47
2024/04/23 01:43:17;;;;;;;;;9.00;7.00;;;;;;;;5457594;25;43851;-47
2024/04/23 01:45:42;;;;;;;;;8.00;8.00;;;;;;;;5498430;25;43702;-48
2024/04/23 01:48:07;;;;;;;;;10.67;8.00;;;;;;;;5495835;25;45001;-48
2024/04/23 01:50:33;;;;;;;;;12.00;11.00;;;;;;;;5495789;25;44066;-46
2024/04/23 01:52:58;;;;;;;;;13.00;9.67;;;;;;;;5467505;25;44491;-50
2024/04/23 01:55:23;;;;;;;;;13.00;9.00;;;;;;;;5496369;25;44524;-47
2024/04/23 01:57:48;;;;;;;;;7.33;7.33;;;;;;;;5502360;25;44092;-48
2024/04/23 02:00:16;;;;;;;;;11.00;9.67;;;;;;;;5502379;25;43859;-50
2024/04/23 02:02:42;;;;;;;;;11.33;10.00;;;;;;;;5493624;25;43992;-49
2024/04/23 03:44:00;;;;;;;;;11.00;10.00;;;;;7.13;63.28;101835.59;5603221;25;43956;-46
2024/04/23 03:46:25;;;;;;;;;10.00;9.00;;;;;7.32;62.37;101828.16;5561077;25;43812;-46
2024/04/23 03:48:50;;;;;;;;;9.00;9.00;;;;;7.49;62.22;101833.13;5560416;25;57727;-48
2024/04/23 03:51:16;;;;;;;;;7.33;7.00;;;;;7.59;62.41;101831.16;5573022;25;43985;-49
2024/04/23 03:53:41;;;;;;;;;8.33;7.67;;;;;7.72;60.56;101829.13;5525253;25;46424;-46
2024/04/23 03:56:06;;;;;;;;;9.33;8.67;;;;;7.77;60.54;101830.75;5561413;25;46612;-47
2024/04/23 03:58:32;;;;;;;;;7.67;7.00;;;;;7.92;60.78;101826.03;5509382;25;43953;-45
2024/04/23 04:00:57;;;;;;;;;17.67;14.00;;;;;7.93;60.57;101833.06;5577004;25;60693;-45
2024/04/23 04:06:06;;;;;;;;;10.33;10.00;;;;;8.08;59.47;101831.84;5557291;25;44077;-47
2024/04/23 04:08:38;;;;;;;;;19.33;11.00;;;;;8.15;59.79;101832.56;5575397;25;43879;-47
2024/04/23 04:11:04;;;;;;;;;14.00;12.67;;;;;8.27;59.16;101832.28;5560832;25;43918;-46
2024/04/23 04:13:29;;;;;;;;;9.00;8.00;;;;;8.19;59.15;101837.78;5582279;25;44819;-46
2024/04/23 04:15:55;;;;;;;;;13.00;10.33;;;;;8.19;59.22;101839.56;5576293;25;70836;-46
2024/04/23 04:18:20;;;;;;;;;16.33;10.67;;;;;8.16;60.07;101844.91;5561266;25;44107;-46
2024/04/23 04:20:45;;;;;;;;;11.33;9.67;;;;;8.14;59.34;101846.75;5577116;25;58418;-47
2024/04/23 04:23:11;;;;;;;;;11.67;8.67;;;;;8.15;59.26;101843.16;5536124;25;65700;-46
2024/04/23 04:25:36;;;;;;;;;13.00;10.00;;;;;8.17;58.81;101852.81;5573789;25;43717;-45
2024/04/23 04:28:01;;;;;;;;;12.33;10.67;;;;;8.19;59.16;101852.81;5561525;25;64284;-45
2024/04/23 04:30:27;;;;;;;;;10.00;9.67;;;;;8.19;59.07;101848.38;5574874;25;52191;-45
2024/04/23 04:32:52;;;;;;;;;13.67;10.00;;;;;8.17;59.27;101844.88;5574484;25;45570;-45
2024/04/23 04:35:17;;;;;;;;;13.00;13.00;;;;;8.17;58.76;101846.66;5555832;25;51431;-47
2024/04/23 04:37:42;;;;;;;;;13.00;11.67;;;;;8.18;58.30;101848.41;5536689;25;57468;-46
2024/04/23 04:40:08;;;;;;;;;13.00;11.00;;;;;8.23;59.37;101849.19;5523668;25;44544;-47
2024/04/23 04:42:33;;;;;;;;;17.00;13.33;;;;;8.19;58.50;101848.38;5534798;25;44105;-48
2024/04/23 04:44:59;;;;;;;;;16.00;12.00;;;;;8.19;58.20;101847.50;5563659;25;43942;-46
2024/04/23 04:47:24;;;;;;;;;14.67;13.00;;;;;8.21;58.32;101846.56;5540607;25;64216;-46
2024/04/23 04:49:49;;;;;;;;;15.33;10.67;;;;;8.23;59.31;101849.19;5540332;25;54819;-47
2024/04/23 04:52:15;;;;;;;;;10.67;10.67;;;;;8.26;59.07;101849.09;5564849;25;55807;-48
2024/04/23 04:54:40;;;;;;;;;15.00;10.67;;;;;8.27;59.57;101845.53;5550237;25;64852;-46
2024/04/23 04:57:05;;;;;;;;;9.00;9.00;;;;;8.27;58.95;101845.53;5551825;25;67390;-47
2024/04/23 04:59:31;;;;;;;;;14.00;14.00;;;;;8.32;58.60;101853.38;5540653;25;68603;-46
2024/04/23 05:01:56;;;;;;;;;15.00;13.00;;;;;8.34;58.27;101852.44;5564534;25;72214;-45
2024/04/23 05:04:21;;;;;;;;;15.67;12.67;;;;;8.39;58.32;101861.13;5531112;25;55858;-46
2024/04/23 05:06:47;;;;;;;;;15.00;14.33;;;;;8.39;58.94;101863.78;5545147;25;44017;-46
2024/04/23 05:09:12;;;;;;;;;15.00;12.67;;;;;8.43;59.15;101862.84;5515925;25;44128;-47
2024/04/23 05:11:37;;;;;;;;;15.00;15.00;;;;;8.41;58.32;101864.63;5511088;25;46086;-46
2024/04/23 05:14:03;;;;;;;;;17.67;12.67;;;;;8.48;58.91;101868.03;5479861;25;61167;-48
2024/04/23 05:16:28;;;;;;;;;14.33;13.33;;;;;8.54;59.42;101861.72;5543040;25;67739;-47
2024/04/23 05:18:53;;;;;;;;;15.33;14.00;;;;;8.59;58.63;101868.66;5538660;25;64717;-47
2024/04/23 05:21:19;;;;;;;;;19.33;15.00;;;;;8.66;58.48;101869.38;5545956;25;73679;-49
2024/04/23 05:23:44;;;;;;;;;18.00;15.67;;;;;8.71;58.72;101870.13;5541970;25;68221;-50
2024/04/23 05:26:09;;;;;;;;;18.33;15.33;;;;;8.73;59.19;101865.66;5542603;25;68068;-48
2024/04/23 05:28:35;;;;;;;;;19.33;15.67;;;;;8.80;57.83;101868.16;5519730;25;43907;-48
2024/04/23 05:33:55;;;;;;;;;15.00;14.00;;;;;8.93;57.39;101873.09;5408868;25;44090;-45
2024/04/23 05:36:22;;;;;;;;;18.67;15.33;;;;;9.01;57.23;101885.28;5564926;25;43984;-46
2024/04/23 05:38:48;;;;;;;;;19.50;15.00;;;;;9.00;58.68;101884.44;5542779;25;44035;-49
2024/04/23 05:41:13;;;;;;;;;20.33;17.00;;;;;9.00;58.44;101881.78;5542186;25;44683;-45
2024/04/23 05:43:39;;;;;;;;;21.33;17.67;;;;;9.02;58.68;101884.38;5520316;25;65188;-47
2024/04/23 05:46:04;;;;;;;;;15.00;15.00;;;;;9.07;57.36;101882.47;5573917;25;44051;-45
2024/04/23 05:49:07;;;;;;;;;21.67;17.33;;;;;9.14;57.31;101886.72;5576210;25;43781;-46
2024/04/23 05:52:10;;;;;;;;;21.00;18.00;;;;;9.19;57.58;101889.25;5559547;25;45205;-46
2024/04/23 05:55:13;;;;;;;;;22.00;16.33;;;;;9.21;57.32;101887.44;5555818;25;43735;-47
2024/04/23 05:57:39;;;;;;;;;21.00;15.33;;;;;9.24;57.68;101882.03;5540381;25;44013;-47
2024/04/23 06:00:04;;;;;;;;;18.67;18.67;;;;;9.30;57.26;101889.84;5565210;25;64027;-46
2024/04/23 06:02:30;;;;;;;;;26.00;20.33;;;;;9.35;56.77;101887.94;5575225;25;43978;-48
2024/04/23 06:04:55;;;;;;;;;17.33;16.67;;;;;9.40;57.06;101891.31;5572856;25;47277;-46
2024/04/23 06:07:21;;;;;;;;;21.00;21.00;;;;;9.56;57.34;101889.09;5544368;25;54556;-46
2024/04/23 06:09:47;;;;;;;;;20.67;18.33;;;;;9.73;56.76;101893.94;5526008;25;44117;-49
2024/04/23 06:12:12;;;;;;;;;26.33;22.67;;;;;9.90;56.95;101893.44;5559377;25;71220;-47
2024/04/23 06:14:42;;;;;;;;;35.50;24.25;;;;;10.09;56.83;101904.38;5562189;25;55085;-47
2024/04/23 06:17:15;;;;;;;;;28.00;23.00;;;;;10.34;56.58;101894.75;5538996;25;43863;-47
2024/04/23 06:19:41;;;;;;;;;25.67;24.00;;;;;10.51;56.33;101888.97;5567109;25;56630;-48
2024/04/23 06:22:06;;;;;;;;;28.00;26.25;;;;;10.66;55.42;101887.56;5557164;25;44752;-45
2024/04/23 06:24:31;;;;;;;;;29.00;25.00;;;;;10.87;55.17;101892.19;5561442;25;62943;-45
2024/04/23 06:26:57;;;;;;;;;29.50;25.50;;;;;11.10;54.90;101895.84;5557034;25;68277;-45
2024/04/23 06:29:22;;;;;;;;;28.00;24.67;;;;;11.30;55.14;101894.28;5548856;25;64923;-45
2024/04/23 06:31:50;;;;;;;;;28.00;25.25;;;;;11.46;54.61;101882.16;5570482;25;70305;-46
2024/04/23 06:34:16;;;;;;;;;31.33;26.33;;;;;12.20;54.56;101887.38;5564121;25;69521;-45
2024/04/23 06:36:41;;;;;;;;;35.00;27.00;;;;;13.19;53.33;101885.06;5512342;25;43918;-44
2024/04/23 06:39:08;;;;;;;;;39.75;31.25;;;;;13.85;52.51;101886.59;5508629;25;44004;-45
2024/04/23 06:41:34;;;;;;;;;30.33;26.67;;;;;14.36;51.36;101892.22;5541679;25;43891;-45
2024/04/23 06:43:59;;;;;;;;;27.33;22.33;;;;;15.09;50.99;101885.97;5531011;25;43923;-46
2024/04/23 06:46:24;;;;;;;;;32.67;27.67;;;;;15.59;48.91;101884.22;5545514;25;43979;-45
2024/04/23 06:48:50;;;;;;;;;33.00;27.33;;;;;16.19;48.39;101883.63;5554941;25;63418;-45
2024/04/23 06:51:15;;;;;;;;;30.33;27.33;;;;;16.58;46.98;101881.41;5551455;25;52380;-45
2024/04/23 06:53:40;;;;;;;;;25.33;24.33;;;;;16.32;46.39;101883.78;5536144;25;74080;-46
2024/04/23 06:56:06;;;;;;;;;28.67;26.67;;;;;15.96;46.33;101884.94;5546290;25;59345;-44
2024/04/23 06:58:31;;;;;;;;;29.33;27.33;;;;;16.33;46.18;101885.53;5545829;25;43901;-45
2024/04/23 07:00:58;;;;;;;;;27.67;25.00;;;;;17.66;45.42;101886.56;5541292;25;58088;-45
2024/04/23 07:03:23;;;;;;;;;30.33;29.67;;;;;19.19;45.17;101878.41;5548652;25;44109;-46
2024/04/23 07:05:52;;;;;;;;;28.00;26.00;;;;;20.71;43.91;101881.84;5542933;25;67143;-48
2024/04/23 07:08:17;;;;;;;;;27.00;27.00;;;;;21.93;41.40;101877.75;5550412;25;43953;-47
2024/04/23 07:10:43;;;;;;;;;27.67;27.67;;;;;22.84;40.96;101880.19;5508117;25;63322;-47
2024/04/23 07:13:08;;;;;;;;;25.33;21.67;;;;;23.56;38.33;101874.94;5520532;25;43940;-47
2024/04/23 07:15:34;;;;;;;;;35.00;27.67;;;;;23.44;35.63;101880.47;5551756;25;67624;-46
2024/04/23 07:17:59;;;;;;;;;28.00;26.00;;;;;23.08;37.28;101887.22;5554336;25;64553;-47
2024/04/23 07:20:24;;;;;;;;;28.33;27.33;;;;;22.84;37.21;101880.19;5556995;25;44844;-47
2024/04/23 07:22:50;;;;;;;;;24.00;19.33;;;;;22.87;35.85;101884.50;5534202;25;50857;-47
2024/04/23 07:25:15;;;;;;;;;30.00;25.33;;;;;22.80;35.95;101878.72;5549757;25;43858;-49
2024/04/23 07:27:40;;;;;;;;;24.33;24.00;;;;;23.03;35.72;101879.47;5517222;25;43922;-47
2024/04/23 07:30:06;;;;;;;;;33.33;28.00;;;;;23.19;35.44;101875.44;5545791;25;71722;-50
2024/04/23 07:32:31;;;;;;;;;29.67;26.00;;;;;23.35;35.87;101877.69;5528814;25;44389;-48
2024/04/23 07:34:57;;;;;;;;;29.33;24.33;;;;;24.23;36.05;101868.00;5562022;25;57028;-50
2024/04/23 07:37:22;;;;;;;;;24.00;23.33;;;;;25.73;34.76;101869.41;5554633;25;44031;-49
2024/04/23 07:39:48;;;;;;;;;23.33;20.33;;;;;27.37;33.69;101870.09;5551577;25;44806;-48
2024/04/23 07:42:13;;;;;;;;;28.67;28.67;;;;;28.68;32.20;101876.22;5508821;25;43914;-47
2024/04/23 07:44:39;;;;;;;;;26.67;25.33;;;;;30.00;30.67;101875.94;5520411;25;67765;-46
2024/04/23 07:47:04;;;;;;;;;27.33;27.33;;;;;30.99;29.51;101870.56;5537107;25;43969;-49
2024/04/23 07:49:29;;;;;;;;;25.00;22.67;;;;;31.96;28.12;101877.03;5548290;25;63583;-46
2024/04/23 07:51:55;;;;;;;;;25.00;25.00;;;;;32.96;28.50;101882.75;5551603;25;44002;-47
2024/04/23 07:54:20;;;;;;;;;27.67;25.33;;;;;33.86;26.86;101878.44;5540665;25;44034;-47
2024/04/23 07:56:45;;;;;;;;;22.67;21.67;;;;;34.41;25.73;101882.00;5546973;25;52039;-47
2024/04/23 07:59:10;;;;;;;;;20.67;20.67;;;;;35.06;24.90;101884.19;5533676;25;56188;-45
2024/04/23 08:01:36;;;;;;;;;24.00;21.33;;;;;35.72;24.70;101892.53;5508926;25;67840;-48
2024/04/23 08:04:01;;;;;;;;;13.67;13.67;;;;;36.54;21.46;101878.06;5511160;25;63501;-49
2024/04/23 08:06:27;;;;;;;;;13.33;9.00;;;;;36.75;20.02;101879.59;5542355;25;43923;-48
2024/04/23 08:08:53;;;;;;;;;10.67;9.67;;;;;36.46;20.06;101887.50;5551621;25;44846;-47
2024/04/23 08:11:19;;;;;;;;;9.25;7.75;;;;;36.50;18.54;101885.97;5539747;25;44024;-50
2024/04/23 08:13:44;;;;;;;;;10.75;9.25;;;;;36.47;18.36;101886.44;5516561;25;43960;-48
2024/04/23 08:16:10;;;;;;;;;7.25;7.00;;;;;36.47;17.47;101899.44;5544922;25;55469;-47
2024/04/23 08:18:36;;;;;;;;;9.25;8.00;;;;;36.74;17.79;101887.06;5552180;25;44944;-47
2024/04/23 08:21:05;;;;;;;;;9.50;7.75;;;;;37.24;17.31;101891.72;5548616;25;43782;-47
2024/04/23 08:23:34;;;;;;;;;12.00;8.25;;;;;37.94;17.19;101891.59;5554418;25;43905;-47
2024/04/23 08:26:00;;;;;;;;;6.00;6.00;;;;;38.78;17.75;101888.88;5525915;25;44115;-48
2024/04/23 08:28:26;;;;;;;;;6.25;6.25;;;;;39.77;16.67;101891.94;5571384;25;45586;-47
2024/04/23 08:30:51;;;;;;;;;7.00;7.00;;;;;40.60;16.55;101892.41;5543176;25;72060;-48
2024/04/23 08:33:16;;;;;;;;;5.50;5.50;;;;;40.87;15.28;101886.13;5541108;25;62388;-48
2024/04/23 08:35:43;;;;;;;;;6.75;6.75;;;;;41.09;14.43;101880.63;5537807;25;67428;-46
2024/04/23 08:38:08;;;;;;;;;6.00;6.00;;;;;41.49;15.46;101885.13;5535231;25;44129;-48
2024/04/23 08:40:34;;;;;;;;;5.25;5.25;;;;;41.98;14.22;101886.25;5518571;25;43934;-47
2024/04/23 08:43:03;;;;;;;;;8.25;5.75;;;;;42.34;13.46;101885.81;5539901;25;44024;-47
2024/04/23 08:45:30;;;;;;;;;4.00;4.00;;;;;42.63;12.84;101881.59;5543518;25;44101;-46
2024/04/23 08:47:56;;;;;;;;;7.00;5.50;;;;;42.96;13.74;101878.72;5506318;25;43932;-46
2024/04/23 08:50:22;;;;;;;;;5.00;3.25;;;;;43.16;13.06;101886.44;5553487;25;43929;-48
2024/04/23 08:52:48;;;;;;;;;5.00;5.00;;;;;42.57;11.04;101885.44;5540299;25;44032;-47
2024/04/23 08:55:14;;;;;;;;;3.25;3.25;;;;;42.04;11.08;101878.78;5555479;25;46076;-47
2024/04/23 08:57:39;;;;;;;;;3.00;3.00;;;;;42.21;11.96;101867.50;5543180;25;44840;-46
2024/04/23 09:00:08;;;;;;;;;5.75;4.25;;;;;42.38;11.93;101870.19;5559078;25;43916;-48
2024/04/23 09:02:36;;;;;;;;;3.75;3.75;;;;;42.21;10.21;101876.72;5558175;25;44366;-49
2024/04/23 09:05:02;;;;;;;;;3.75;3.75;;;;;42.42;11.79;101874.13;5561309;25;44033;-47
2024/04/23 09:07:27;;;;;;;;;3.25;3.25;;;;;42.88;10.65;101870.88;5515313;25;45593;-48
2024/04/23 09:09:53;;;;;;;;;4.50;4.50;;;;;43.04;10.96;101875.44;5525837;25;44061;-46
2024/04/23 09:12:18;;;;;;;;;4.00;2.75;;;;;42.84;11.07;101866.94;5520064;25;66121;-47
2024/04/23 09:14:45;;;;;;;;;4.50;4.50;;;;;43.06;11.28;101867.59;5546658;25;43946;-46
2024/04/23 09:17:10;;;;;;;;;5.00;5.00;;;;;44.08;11.24;101869.19;5547010;25;44805;-46
2024/04/23 09:19:36;;;;;;;;;10.00;9.00;;;;;44.60;10.06;101860.78;5510772;25;44453;-46
2024/04/23 09:22:01;;;;;;;;;6.00;4.75;;;;;44.57;10.38;101858.53;5564502;25;43980;-47
2024/04/23 09:24:27;;;;;;;;;4.00;4.00;;;;;44.59;10.39;101854.34;5507824;25;43864;-50
2024/04/23 09:26:53;;;;;;;;;4.50;4.50;;;;;44.99;10.18;101851.75;5540916;25;44733;-47
2024/04/23 09:29:18;;;;;;;;;4.50;3.00;;;;;44.81;10.25;101850.38;5523254;25;71643;-50
2024/04/23 09:31:44;;;;;;;;;3.00;3.00;;;;;44.32;9.18;101862.19;5505088;25;45291;-46
2024/04/23 09:34:10;;;;;;;;;2.00;2.00;;;;;44.18;10.40;101857.13;5522165;25;69455;-46
2024/04/23 09:36:35;;;;;;;;;2.00;2.00;;;;;44.46;9.10;101840.91;5562900;25;44183;-49
2024/04/23 09:39:03;;;;;;;;;2.00;2.00;;;;;44.80;9.48;101847.88;5548360;25;44047;-49
2024/04/23 09:41:31;;;;;;;;;2.50;2.50;;;;;44.84;9.16;101844.22;5546589;25;44094;-49
2024/04/23 09:43:58;;;;;;;;;3.00;3.00;;;;;45.07;9.23;101844.69;5540643;25;43942;-48
2024/04/23 09:46:24;;;;;;;;;1.00;1.00;;;;;45.76;10.05;101836.53;5553111;25;44746;-46
2024/04/23 09:48:50;;;;;;;;;2.00;2.00;;;;;46.73;9.67;101831.28;5566395;25;43896;-49
2024/04/23 09:51:17;;;;;;;;;3.00;3.00;;;;;47.54;8.89;101834.25;5513997;25;43917;-47
2024/04/23 09:53:43;;;;;;;;;4.00;2.75;;;;;47.54;9.42;101824.97;5550844;25;43820;-50
2024/04/23 09:56:14;;;;;;;;;3.50;3.00;;;;;47.62;8.65;101829.06;5559360;25;44403;-48
2024/04/23 09:58:39;;;;;;;;;2.00;2.00;;;;;47.59;8.54;101835.28;5544413;25;43927;-48
2024/04/23 10:01:05;;;;;;;;;3.00;3.00;;;;;47.36;8.93;101818.97;5541101;25;43870;-49
2024/04/23 10:03:33;;;;;;;;;2.75;2.00;;;;;47.43;7.79;101824.25;5561794;25;43919;-48
2024/04/23 10:06:04;;;;;;;;;2.00;2.00;;;;;47.30;7.46;101816.53;5508060;25;43941;-46
2024/04/23 10:08:33;;;;;;;;;3.00;3.00;;;;;47.15;7.78;101812.78;5511588;25;44059;-47
2024/04/23 10:10:58;;;;;;;;;2.00;2.00;;;;;47.27;7.77;101819.97;5557622;25;43925;-49
2024/04/23 10:13:33;;;;;;;;;0.50;0.50;;;;;47.65;8.03;101820.81;5514159;25;66875;-48
2024/04/23 10:16:15;;;;;;;;;6.50;3.25;;;;;47.94;6.76;101814.22;5506895;25;46124;-47
2024/04/23 10:18:49;;;;;;;;;1.75;1.75;;;;;47.59;7.72;101810.81;5519154;25;43917;-48
2024/04/23 10:21:20;;;;;;;;;3.25;3.25;;;;;47.62;7.50;101804.56;5487218;25;43871;-46
2024/04/23 10:23:46;;;;;;;;;1.25;0.50;;;;;48.00;7.83;101800.88;5561502;25;43953;-46
2024/04/23 10:26:13;;;;;;;;;2.75;1.75;;;;;48.39;7.35;101805.28;5507819;25;75489;-49
2024/04/23 10:28:39;;;;;;;;;4.50;3.75;;;;;48.30;7.05;101795.88;5524359;25;44001;-48
2024/04/23 10:31:05;;;;;;;;;3.75;2.00;;;;;48.14;8.00;101807.38;5565789;25;44279;-50
2024/04/23 10:33:31;;;;;;;;;3.25;2.75;;;;;48.29;7.60;101806.28;5519416;25;65193;-46
2024/04/23 10:36:00;;;;;;;;;3.00;2.50;;;;;49.09;7.73;101800.53;5545827;25;44995;-49
2024/04/23 10:38:28;;;;;;;;;1.00;1.00;;;;;49.42;7.48;101799.56;5553714;25;43947;-49
2024/04/23 10:40:53;;;;;;;;;1.80;1.60;;;;;49.65;7.36;101792.78;5542302;25;43932;-49
2024/04/23 10:43:19;;;;;;;;;2.00;0.00;;;;;49.95;7.72;101806.44;5509170;25;46557;-48
2024/04/23 10:45:45;;;;;;;;;2.00;2.00;;;;;49.80;7.33;101790.75;5513884;25;44751;-51
2024/04/23 10:48:10;;;;;;;;;4.00;1.00;;;;;49.71;6.98;101787.84;5513921;25;43898;-50
2024/04/23 10:50:37;;;;;;;;;2.50;1.75;;;;;50.05;7.55;101792.09;5508647;25;44218;-52
2024/04/23 10:53:03;;;;;;;;;3.25;2.25;;;;;50.58;7.36;101798.03;5509010;25;46118;-48
2024/04/23 10:55:29;;;;;;;;;3.25;3.25;;;;;50.98;6.62;101783.84;5515695;25;44069;-51
2024/04/23 10:57:56;;;;;;;;;3.75;3.00;;;;;50.62;7.01;101782.91;5522024;25;43779;-49
2024/04/23 11:00:35;;;;;;;;;3.00;2.50;;;;;50.50;6.87;101788.38;5517325;25;43988;-50
2024/04/23 11:03:01;;;;;;;;;2.00;2.00;;;;;50.47;6.93;101780.50;5520987;25;43893;-50
2024/04/23 11:05:31;;;;;;;;;4.00;2.75;;;;;50.76;7.31;101781.97;5502868;25;43982;-49
2024/04/23 11:08:07;;;;;;;;;3.00;3.00;;;;;50.69;6.69;101776.75;5525849;25;44031;-49
2024/04/23 11:10:52;;;;;;;;;3.00;1.50;;;;;49.82;6.72;101768.66;5515793;25;44087;-48
2024/04/23 11:13:28;;;;;;;;;1.75;1.75;;;;;48.66;7.22;101775.47;5527895;25;43857;-50
2024/04/23 11:15:56;;;;;;;;;1.00;1.00;;;;;48.07;7.34;101769.47;5500771;25;45839;-51
2024/04/23 11:18:25;;;;;;;;;2.00;2.00;;;;;47.66;6.92;101762.53;5511292;25;43629;-48
2024/04/23 11:20:55;;;;;;;;;4.00;0.75;;;;;47.64;7.02;101760.03;5502143;25;43854;-51
2024/04/23 11:23:22;;;;;;;;;4.00;4.00;;;;;46.92;7.34;101746.94;5520091;25;43891;-50
2024/04/23 11:25:49;;;;;;;;;3.00;3.00;;;;;46.63;7.01;101750.63;5519826;25;44427;-51
2024/04/23 11:28:15;;;;;;;;;5.50;3.00;;;;;46.83;7.71;101752.41;5512774;25;43951;-52
2024/04/23 11:30:40;;;;;;;;;2.00;2.00;;;;;46.42;6.90;101755.66;5523699;25;43811;-52
2024/04/23 11:33:07;;;;;;;;;4.25;2.00;;;;;45.67;7.44;101746.47;5506818;25;68080;-52
2024/04/23 11:35:35;;;;;;;;;1.50;1.50;;;;;45.01;7.37;101742.88;5500362;25;45139;-51
2024/04/23 11:38:00;;;;;;;;;2.20;2.20;;;;;45.05;7.63;101737.56;5499561;25;44097;-47
2024/04/23 11:40:26;;;;;;;;;2.00;2.00;;;;;44.96;7.53;101748.53;5507315;25;68538;-45
2024/04/23 11:42:51;;;;;;;;;3.50;2.00;;;;;44.50;6.45;101734.63;5525673;25;43621;-45
2024/04/23 11:45:17;;;;;;;;;3.00;3.00;;;;;44.14;7.27;101726.28;5525999;25;65692;-44
2024/04/23 11:47:43;;;;;;;;;4.00;3.00;;;;;44.39;7.32;101737.47;5538254;25;43998;-44
2024/04/23 11:50:08;;;;;;;;;2.50;2.50;;;;;44.34;7.69;101731.88;5538989;25;43993;-44
2024/04/23 11:52:34;;;;;;;;;1.00;1.00;;;;;45.03;7.74;101731.38;5524748;25;43927;-44
2024/04/23 11:54:59;;;;;;;;;2.00;2.00;;;;;45.46;7.91;101734.50;5540439;25;44622;-44
2024/04/23 11:57:26;;;;;;;;;3.00;1.75;;;;;45.37;6.99;101719.41;5510100;25;44604;-44
2024/04/23 11:59:51;;;;;;;;;4.00;4.00;;;;;44.86;7.33;101726.13;5552159;25;67410;-44
2024/04/23 12:02:17;;;;;;;;;2.25;1.75;;;;;43.90;7.62;101719.31;5540504;25;44097;-44
2024/04/23 12:04:43;;;;;;;;;4.00;2.25;;;;;43.63;7.47;101714.78;5541070;25;45723;-44
2024/04/23 12:07:10;;;;;;;;;2.25;2.25;;;;;43.29;7.44;101718.06;5561008;25;43829;-44
2024/04/23 12:09:35;;;;;;;;;1.50;1.50;;;;;43.44;7.53;101713.59;5528192;25;43794;-44
2024/04/23 12:12:01;;;;;;;;;2.25;2.00;;;;;43.57;7.80;101723.44;5540047;25;67890;-44
2024/04/23 12:14:28;;;;;;;;;3.00;3.00;;;;;43.22;7.32;101722.22;5545762;25;44707;-43
2024/04/23 12:16:56;;;;;;;;;5.00;3.00;;;;;42.33;7.22;101717.31;5560775;25;43894;-44
2024/04/23 12:19:22;;;;;;;;;2.00;2.00;;;;;41.62;7.22;101716.41;5540744;25;44033;-45
2024/04/23 12:21:48;;;;;;;;;4.00;3.00;;;;;40.72;7.49;101713.94;5513942;25;44106;-44
2024/04/23 12:24:14;;;;;;;;;2.75;2.75;;;;;40.10;8.17;101712.16;5554856;25;44007;-44
2024/04/23 12:26:40;;;;;;;;;2.25;2.25;;;;;39.31;8.01;101708.19;5518040;25;43840;-43
2024/04/23 12:29:05;;;;;;;;;3.00;3.00;;;;;37.55;9.30;101704.06;5559999;25;43844;-44
2024/04/23 12:31:30;;;;;;;;;5.67;3.33;;;;;35.28;8.85;101702.31;5562049;25;69004;-44
2024/04/23 12:33:59;;;;;;;;;2.00;2.00;;;;;32.35;10.31;101706.25;5540442;25;44809;-43
2024/04/23 12:36:24;;;;;;;;;2.00;2.00;;;;;29.99;10.57;101705.06;5564720;25;43841;-44
2024/04/23 12:38:50;;;;;;;;;4.00;1.25;;;;;27.97;12.02;101701.59;5570511;25;43991;-44
2024/04/23 12:41:20;;;;;;;;;3.25;3.25;;;;;26.42;12.69;101706.22;5564745;25;52977;-43
2024/04/23 12:43:47;;;;;;;;;2.25;2.25;;;;;25.20;12.98;101715.69;5534764;25;46119;-43
2024/04/23 12:46:13;;;;;;;;;3.75;3.75;;;;;24.18;13.46;101696.34;5558049;25;43927;-43
2024/04/23 12:48:39;;;;;;;;;2.33;2.33;;;;;23.69;15.22;101693.63;5506934;25;43972;-43
2024/04/23 12:51:05;;;;;;;;;3.67;3.00;;;;;23.27;14.83;101685.66;5559189;25;43924;-43
2024/04/23 12:53:30;;;;;;;;;4.50;2.50;;;;;22.95;14.33;101687.53;5518287;25;72045;-43
2024/04/23 12:55:55;;;;;;;;;3.00;3.00;;;;;22.58;15.73;101679.94;5528695;25;63181;-43
2024/04/23 12:58:26;;;;;;;;;5.33;3.67;;;;;22.34;15.76;101687.47;5567345;25;51027;-43
2024/04/23 13:00:52;;;;;;;;;5.00;5.00;;;;;22.13;15.29;101686.47;5566474;25;43659;-44
2024/04/23 13:03:18;;;;;;;;;4.00;4.00;;;;;;;;5518861;25;44025;-43
2024/04/23 13:05:46;;;;;;;;;3.00;3.00;;;;;21.45;16.58;101696.66;5551830;25;43948;-43
2024/04/23 13:08:15;;;;;;;;;5.67;3.33;;;;;21.24;16.85;101688.47;5539158;25;44054;-44
2024/04/23 13:10:41;;;;;;;;;5.00;5.00;;;;;21.02;16.91;101670.41;5539791;25;43870;-43
2024/04/23 13:13:09;;;;;;;;;5.00;5.00;;;;;20.94;17.19;101671.88;5523742;25;46022;-44
2024/04/23 13:15:35;;;;;;;;;4.00;4.00;;;;;20.91;17.46;101674.84;5551924;25;43940;-43
2024/04/23 13:18:00;;;;;;;;;6.00;4.00;;;;;20.78;17.60;101677.66;5537084;25;43774;-44
2024/04/23 13:20:26;;;;;;;;;4.00;4.00;;;;;20.59;17.86;101670.13;5542029;25;68289;-43
2024/04/23 13:22:51;;;;;;;;;7.33;6.00;;;;;20.47;18.20;101663.00;5526606;25;49088;-43
2024/04/23 13:25:16;;;;;;;;;3.00;3.00;;;;;20.34;18.11;101671.19;5542834;25;71921;-43
2024/04/23 13:27:42;;;;;;;;;4.00;4.00;;;;;20.19;18.12;101662.41;5532693;25;51028;-43
2024/04/23 13:30:08;;;;;;;;;3.33;3.00;;;;;20.14;19.00;101656.50;5544509;25;43972;-43
2024/04/23 13:32:36;;;;;;;;;4.33;4.33;;;;;20.11;18.71;101660.31;5519162;25;44161;-44